Terminal Aerodrome Forecast
Issued by NWS

Home | Current Version | Previous Version | Text Only | Print | Product List | Glossary On
Versions: 1 2 3 4 5 6 7 8 9 10 11 12 13 14 15 16 17 18
619
FTUS41 KPBZ 242320
TAFZZV
TAF
KZZV 242320Z 2500/2524 11007KT P6SM VCSH OVC045
     FM250800 01003KT P6SM OVC015
     FM251200 35005KT P6SM OVC008
     FM251500 34007KT P6SM VCSH OVC008
     FM251700 33008KT P6SM OVC015=

USA.gov is the U.S. government's official web portal to all federal, state and local government web resources and services.